sensor_id;sensor_type;location;lat;lon;timestamp;pressure;altitude;pressure_sealevel;temperature;humidity
75609;BME280;64194;51.044;13.780;2023-02-15T00:03:06;101969.16;;;1.79;86.12
75609;BME280;64194;51.044;13.780;2023-02-15T00:07:08;101963.03;;;1.73;86.31
75609;BME280;64194;51.044;13.780;2023-02-15T00:11:12;101968.25;;;1.76;86.29
75609;BME280;64194;51.044;13.780;2023-02-15T00:15:14;101960.38;;;1.66;86.18
75609;BME280;64194;51.044;13.780;2023-02-15T00:19:20;101956.03;;;1.75;86.42
75609;BME280;64194;51.044;13.780;2023-02-15T00:23:22;101956.91;;;1.72;86.17
75609;BME280;64194;51.044;13.780;2023-02-15T00:27:24;101950.78;;;1.75;86.09
75609;BME280;64194;51.044;13.780;2023-02-15T00:31:26;101950.78;;;1.70;86.08
75609;BME280;64194;51.044;13.780;2023-02-15T00:35:30;101945.56;;;1.58;86.18
75609;BME280;64194;51.044;13.780;2023-02-15T00:39:31;101950.78;;;1.52;86.43
75609;BME280;64194;51.044;13.780;2023-02-15T00:43:34;101945.53;;;1.47;86.43
75609;BME280;64194;51.044;13.780;2023-02-15T00:47:36;101944.63;;;1.39;86.43
75609;BME280;64194;51.044;13.780;2023-02-15T00:51:38;101937.63;;;1.24;87.04
75609;BME280;64194;51.044;13.780;2023-02-15T00:55:39;101937.59;;;1.21;87.25
75609;BME280;64194;51.044;13.780;2023-02-15T00:59:41;101928.88;;;1.19;86.98
75609;BME280;64194;51.044;13.780;2023-02-15T01:03:43;101922.78;;;1.19;87.42
75609;BME280;64194;51.044;13.780;2023-02-15T01:07:44;101921.88;;;1.17;87.16
75609;BME280;64194;51.044;13.780;2023-02-15T01:11:46;101918.38;;;1.12;86.98
75609;BME280;64194;51.044;13.780;2023-02-15T01:15:54;101915.72;;;1.00;87.54
75609;BME280;64194;51.044;13.780;2023-02-15T01:19:56;101920.13;;;1.07;87.83
75609;BME280;64194;51.044;13.780;2023-02-15T01:23:58;101914.84;;;1.04;87.45
75609;BME280;64194;51.044;13.780;2023-02-15T01:28:00;101920.09;;;1.01;87.92
75609;BME280;64194;51.044;13.780;2023-02-15T01:32:02;101915.69;;;0.94;87.59
75609;BME280;64194;51.044;13.780;2023-02-15T01:36:04;101911.34;;;0.93;88.11
75609;BME280;64194;51.044;13.780;2023-02-15T01:40:10;101912.19;;;0.89;87.63
75609;BME280;64194;51.044;13.780;2023-02-15T01:44:53;101901.69;;;0.82;87.93
75609;BME280;64194;51.044;13.780;2023-02-15T01:49:23;101895.63;;;0.90;88.27
75609;BME280;64194;51.044;13.780;2023-02-15T01:53:32;101881.66;;;0.80;87.90
75609;BME280;64194;51.044;13.780;2023-02-15T01:57:35;101886.00;;;0.70;88.28
75609;BME280;64194;51.044;13.780;2023-02-15T02:01:37;101869.41;;;0.67;88.73
75609;BME280;64194;51.044;13.780;2023-02-15T02:05:40;101871.16;;;0.68;88.79
75609;BME280;64194;51.044;13.780;2023-02-15T02:09:43;101863.28;;;0.63;88.80
75609;BME280;64194;51.044;13.780;2023-02-15T02:13:46;101858.91;;;0.61;88.78
75609;BME280;64194;51.044;13.780;2023-02-15T02:18:01;101854.59;;;0.67;89.20
75609;BME280;64194;51.044;13.780;2023-02-15T02:27:02;101846.78;;;0.75;88.34
75609;BME280;64194;51.044;13.780;2023-02-15T02:31:39;101849.38;;;0.73;88.34
75609;BME280;64194;51.044;13.780;2023-02-15T02:36:06;101851.09;;;0.67;88.48
75609;BME280;64194;51.044;13.780;2023-02-15T02:40:19;101844.16;;;0.70;88.27
75609;BME280;64194;51.044;13.780;2023-02-15T02:44:26;101838.91;;;0.67;88.19
75609;BME280;64194;51.044;13.780;2023-02-15T02:48:32;101843.28;;;0.70;88.05
75609;BME280;64194;51.044;13.780;2023-02-15T02:52:41;101838.91;;;0.67;88.34
75609;BME280;64194;51.044;13.780;2023-02-15T02:56:46;101836.28;;;0.63;88.76
75609;BME280;64194;51.044;13.780;2023-02-15T03:00:56;101833.63;;;0.55;88.91
75609;BME280;64194;51.044;13.780;2023-02-15T03:05:03;101823.13;;;0.46;88.67
75609;BME280;64194;51.044;13.780;2023-02-15T03:09:15;101835.34;;;0.50;88.48
75609;BME280;64194;51.044;13.780;2023-02-15T03:13:20;101831.88;;;0.51;88.45
75609;BME280;64194;51.044;13.780;2023-02-15T03:17:25;101831.91;;;0.54;88.84
75609;BME280;64194;51.044;13.780;2023-02-15T03:21:36;101827.53;;;0.56;88.50
75609;BME280;64194;51.044;13.780;2023-02-15T03:25:44;101828.38;;;0.52;88.53
75609;BME280;64194;51.044;13.780;2023-02-15T03:29:52;101831.00;;;0.55;88.69
75609;BME280;64194;51.044;13.780;2023-02-15T03:34:00;101821.41;;;0.51;88.92
75609;BME280;64194;51.044;13.780;2023-02-15T03:38:06;101825.78;;;0.54;88.81
75609;BME280;64194;51.044;13.780;2023-02-15T03:46:24;101833.59;;;0.51;89.20
75609;BME280;64194;51.044;13.780;2023-02-15T03:50:31;101832.72;;;0.47;88.64
75609;BME280;64194;51.044;13.780;2023-02-15T03:54:54;101835.34;;;0.52;88.95
75609;BME280;64194;51.044;13.780;2023-02-15T03:58:55;101829.28;;;0.59;88.80
75609;BME280;64194;51.044;13.780;2023-02-15T04:03:23;101828.38;;;0.49;88.49
75609;BME280;64194;51.044;13.780;2023-02-15T04:07:29;101828.38;;;0.51;88.47
75609;BME280;64194;51.044;13.780;2023-02-15T04:11:31;101825.81;;;0.58;88.16
75609;BME280;64194;51.044;13.780;2023-02-15T04:15:32;101829.22;;;0.50;88.42
75609;BME280;64194;51.044;13.780;2023-02-15T04:19:53;101822.25;;;0.44;88.58
75609;BME280;64194;51.044;13.780;2023-02-15T04:24:13;101826.56;;;0.39;89.14
75609;BME280;64194;51.044;13.780;2023-02-15T04:28:33;101827.41;;;0.33;88.94
75609;BME280;64194;51.044;13.780;2023-02-15T04:32:35;101823.06;;;0.34;88.91
75609;BME280;64194;51.044;13.780;2023-02-15T04:36:38;101821.34;;;0.39;88.53
75609;BME280;64194;51.044;13.780;2023-02-15T04:40:40;101818.75;;;0.37;88.51
75609;BME280;64194;51.044;13.780;2023-02-15T04:44:41;101814.38;;;0.32;88.46
75609;BME280;64194;51.044;13.780;2023-02-15T04:48:43;101813.47;;;0.30;88.87
75609;BME280;64194;51.044;13.780;2023-02-15T04:52:45;101809.13;;;0.30;89.13
75609;BME280;64194;51.044;13.780;2023-02-15T04:56:47;101809.97;;;0.25;88.81
75609;BME280;64194;51.044;13.780;2023-02-15T05:00:49;101802.13;;;0.28;88.38
75609;BME280;64194;51.044;13.780;2023-02-15T05:04:51;101803.88;;;0.24;88.94
75609;BME280;64194;51.044;13.780;2023-02-15T05:08:52;101801.22;;;0.18;88.68
75609;BME280;64194;51.044;13.780;2023-02-15T05:12:54;101791.66;;;0.16;88.56
75609;BME280;64194;51.044;13.780;2023-02-15T05:16:55;101790.72;;;0.08;88.92
75609;BME280;64194;51.044;13.780;2023-02-15T05:20:58;101788.13;;;0.08;89.15
75609;BME280;64194;51.044;13.780;2023-02-15T05:24:59;101788.94;;;-0.01;89.08
75609;BME280;64194;51.044;13.780;2023-02-15T05:29:19;101792.41;;;-0.04;89.04
75609;BME280;64194;51.044;13.780;2023-02-15T05:33:21;101788.97;;;0.02;88.50
75609;BME280;64194;51.044;13.780;2023-02-15T05:37:22;101791.53;;;-0.03;88.95
75609;BME280;64194;51.044;13.780;2023-02-15T05:41:24;101785.47;;;0.03;89.49
75609;BME280;64194;51.044;13.780;2023-02-15T05:45:27;101782.88;;;0.08;89.25
75609;BME280;64194;51.044;13.780;2023-02-15T05:49:28;101793.38;;;0.11;89.00
75609;BME280;64194;51.044;13.780;2023-02-15T05:53:36;101789.00;;;0.08;89.07
75609;BME280;64194;51.044;13.780;2023-02-15T05:57:39;101786.44;;;0.16;89.33
75609;BME280;64194;51.044;13.780;2023-02-15T06:01:40;101789.91;;;0.18;89.28
75609;BME280;64194;51.044;13.780;2023-02-15T06:05:43;101792.53;;;0.16;88.99
75609;BME280;64194;51.044;13.780;2023-02-15T06:09:47;101795.13;;;0.18;88.72
75609;BME280;64194;51.044;13.780;2023-02-15T06:13:51;101791.66;;;0.16;88.68
75609;BME280;64194;51.044;13.780;2023-02-15T06:17:53;101796.00;;;0.17;88.66
75609;BME280;64194;51.044;13.780;2023-02-15T06:21:54;101794.25;;;0.19;88.69
75609;BME280;64194;51.044;13.780;2023-02-15T06:25:57;101787.31;;;0.22;88.55
75609;BME280;64194;51.044;13.780;2023-02-15T06:29:58;101789.06;;;0.25;88.62
75609;BME280;64194;51.044;13.780;2023-02-15T06:34:00;101785.66;;;0.44;87.66
75609;BME280;64194;51.044;13.780;2023-02-15T06:38:03;101785.66;;;0.46;87.52
75609;BME280;64194;51.044;13.780;2023-02-15T06:42:04;101787.47;;;0.59;86.88
75609;BME280;64194;51.044;13.780;2023-02-15T06:46:06;101791.00;;;0.76;86.48
75609;BME280;64194;51.044;13.780;2023-02-15T06:50:09;101783.19;;;0.93;85.87
75609;BME280;64194;51.044;13.780;2023-02-15T06:54:11;101784.06;;;1.10;84.83
75609;BME280;64194;51.044;13.780;2023-02-15T06:58:13;101775.38;;;1.40;83.92
75609;BME280;64194;51.044;13.780;2023-02-15T07:02:15;101774.31;;;2.27;84.06
75609;BME280;64194;51.044;13.780;2023-02-15T07:06:16;101770.66;;;2.60;78.49
75609;BME280;64194;51.044;13.780;2023-02-15T07:10:18;101759.66;;;3.31;76.15
75609;BME280;64194;51.044;13.780;2023-02-15T07:14:20;101758.84;;;4.13;72.21
75609;BME280;64194;51.044;13.780;2023-02-15T07:18:22;101757.63;;;4.39;70.95
75609;BME280;64194;51.044;13.780;2023-02-15T07:22:23;101762.47;;;4.03;71.98
75609;BME280;64194;51.044;13.780;2023-02-15T07:26:25;101758.59;;;4.32;71.73
75609;BME280;64194;51.044;13.780;2023-02-15T07:30:27;101753.84;;;4.59;69.88
75609;BME280;64194;51.044;13.780;2023-02-15T07:34:29;101750.66;;;4.97;68.58
75609;BME280;64194;51.044;13.780;2023-02-15T07:38:33;101747.97;;;5.54;66.33
75609;BME280;64194;51.044;13.780;2023-02-15T07:42:35;101737.66;;;5.91;65.01
75609;BME280;64194;51.044;13.780;2023-02-15T07:46:36;101749.47;;;6.16;63.56
75609;BME280;64194;51.044;13.780;2023-02-15T07:50:38;101739.41;;;6.35;62.53
75609;BME280;64194;51.044;13.780;2023-02-15T07:54:40;101721.78;;;6.76;61.47
75609;BME280;64194;51.044;13.780;2023-02-15T07:58:41;101731.50;;;6.73;61.16
75609;BME280;64194;51.044;13.780;2023-02-15T08:02:54;101719.38;;;7.03;60.56
75609;BME280;64194;51.044;13.780;2023-02-15T08:07:15;101722.25;;;8.25;56.88
75609;BME280;64194;51.044;13.780;2023-02-15T08:11:21;101723.22;;;8.23;56.49
75609;BME280;64194;51.044;13.780;2023-02-15T08:15:26;101705.28;;;8.90;55.12
75609;BME280;64194;51.044;13.780;2023-02-15T08:19:32;101707.31;;;8.54;54.55
75609;BME280;64194;51.044;13.780;2023-02-15T08:23:34;101696.50;;;9.15;53.22
75609;BME280;64194;51.044;13.780;2023-02-15T08:27:35;101696.56;;;9.65;52.11
75609;BME280;64194;51.044;13.780;2023-02-15T08:31:37;101684.53;;;10.28;49.71
75609;BME280;64194;51.044;13.780;2023-02-15T08:35:39;101687.84;;;9.86;50.66
75609;BME280;64194;51.044;13.780;2023-02-15T08:39:41;101674.78;;;10.73;48.54
75609;BME280;64194;51.044;13.780;2023-02-15T08:43:45;101687.72;;;10.59;48.25
75609;BME280;64194;51.044;13.780;2023-02-15T08:47:48;101685.06;;;10.81;47.73
75609;BME280;64194;51.044;13.780;2023-02-15T08:51:49;101687.94;;;11.81;45.76
75609;BME280;64194;51.044;13.780;2023-02-15T08:55:58;101685.13;;;12.79;43.40
75609;BME280;64194;51.044;13.780;2023-02-15T08:59:59;101683.44;;;13.65;41.16
75609;BME280;64194;51.044;13.780;2023-02-15T09:04:04;101673.91;;;13.77;40.44
75609;BME280;64194;51.044;13.780;2023-02-15T09:08:07;101675.50;;;14.30;40.46
75609;BME280;64194;51.044;13.780;2023-02-15T09:12:09;101673.78;;;14.29;39.26
75609;BME280;64194;51.044;13.780;2023-02-15T09:16:11;101686.63;;;13.89;39.90
75609;BME280;64194;51.044;13.780;2023-02-15T09:20:13;101670.34;;;14.27;39.41
75609;BME280;64194;51.044;13.780;2023-02-15T09:24:16;101672.97;;;14.75;39.02
75609;BME280;64194;51.044;13.780;2023-02-15T09:28:17;101679.63;;;14.19;39.03
75609;BME280;64194;51.044;13.780;2023-02-15T09:32:19;101673.91;;;15.65;36.30
75609;BME280;64194;51.044;13.780;2023-02-15T09:36:27;101660.50;;;15.05;37.16
75609;BME280;64194;51.044;13.780;2023-02-15T09:40:35;101661.16;;;15.25;37.08
75609;BME280;64194;51.044;13.780;2023-02-15T10:07:39;101659.50;;;19.88;29.35
75609;BME280;64194;51.044;13.780;2023-02-15T10:11:53;101639.88;;;18.58;30.45
75609;BME280;64194;51.044;13.780;2023-02-15T10:16:31;101646.59;;;19.35;30.22
75609;BME280;64194;51.044;13.780;2023-02-15T10:20:47;101629.75;;;18.49;31.10
75609;BME280;64194;51.044;13.780;2023-02-15T10:29:35;101635.63;;;19.49;29.75
75609;BME280;64194;51.044;13.780;2023-02-15T10:33:42;101629.78;;;19.55;30.03
75609;BME280;64194;51.044;13.780;2023-02-15T10:38:00;101626.94;;;19.45;30.17
75609;BME280;64194;51.044;13.780;2023-02-15T10:50:51;101615.59;;;20.42;27.85
75609;BME280;64194;51.044;13.780;2023-02-15T10:55:13;101600.53;;;20.82;27.98
75609;BME280;64194;51.044;13.780;2023-02-15T10:59:30;101590.53;;;21.77;26.10
75609;BME280;64194;51.044;13.780;2023-02-15T11:08:07;101575.75;;;22.02;26.47
75609;BME280;64194;51.044;13.780;2023-02-15T11:12:17;101573.03;;;22.42;25.24
75609;BME280;64194;51.044;13.780;2023-02-15T11:16:36;101572.22;;;22.99;24.14
75609;BME280;64194;51.044;13.780;2023-02-15T11:20:56;101565.63;;;23.30;23.77
75609;BME280;64194;51.044;13.780;2023-02-15T11:25:02;101557.69;;;22.02;25.54
75609;BME280;64194;51.044;13.780;2023-02-15T11:29:21;101571.16;;;22.42;24.34
75609;BME280;64194;51.044;13.780;2023-02-15T11:37:33;101549.44;;;22.14;24.77
75609;BME280;64194;51.044;13.780;2023-02-15T11:41:39;101575.31;;;22.56;24.23
75609;BME280;64194;51.044;13.780;2023-02-15T11:45:42;101548.44;;;22.74;24.17
75609;BME280;64194;51.044;13.780;2023-02-15T11:49:45;101552.97;;;23.21;23.92
75609;BME280;64194;51.044;13.780;2023-02-15T11:53:48;101546.44;;;22.95;23.84
75609;BME280;64194;51.044;13.780;2023-02-15T11:57:54;101540.31;;;25.47;21.65
75609;BME280;64194;51.044;13.780;2023-02-15T12:01:58;101541.09;;;25.65;20.65
75609;BME280;64194;51.044;13.780;2023-02-15T12:06:04;101533.53;;;24.37;22.05
75609;BME280;64194;51.044;13.780;2023-02-15T12:14:15;101517.50;;;26.16;20.44
75609;BME280;64194;51.044;13.780;2023-02-15T12:22:51;101513.81;;;26.25;19.48
75609;BME280;64194;51.044;13.780;2023-02-15T12:27:04;101519.34;;;24.78;21.16
75609;BME280;64194;51.044;13.780;2023-02-15T12:31:28;101504.34;;;25.95;19.95
75609;BME280;64194;51.044;13.780;2023-02-15T12:35:35;101489.94;;;26.19;19.57
75609;BME280;64194;51.044;13.780;2023-02-15T12:39:51;101486.91;;;24.59;21.35
75609;BME280;64194;51.044;13.780;2023-02-15T12:48:22;101470.28;;;26.49;19.60
75609;BME280;64194;51.044;13.780;2023-02-15T12:52:25;101483.00;;;26.24;19.37
75609;BME280;64194;51.044;13.780;2023-02-15T12:56:27;101471.28;;;25.82;19.61
75609;BME280;64194;51.044;13.780;2023-02-15T13:00:29;101464.72;;;26.01;19.51
75609;BME280;64194;51.044;13.780;2023-02-15T13:04:33;101480.16;;;27.15;18.03
75609;BME280;64194;51.044;13.780;2023-02-15T13:08:46;101477.25;;;26.44;18.68
75609;BME280;64194;51.044;13.780;2023-02-15T13:12:49;101468.84;;;27.42;18.45
75609;BME280;64194;51.044;13.780;2023-02-15T13:16:58;101457.66;;;28.61;17.15
75609;BME280;64194;51.044;13.780;2023-02-15T13:21:09;101460.56;;;27.75;17.88
75609;BME280;64194;51.044;13.780;2023-02-15T13:25:21;101452.31;;;27.36;17.62
75609;BME280;64194;51.044;13.780;2023-02-15T13:29:28;101458.13;;;29.54;16.08
75609;BME280;64194;51.044;13.780;2023-02-15T13:33:33;101447.75;;;28.60;17.26
75609;BME280;64194;51.044;13.780;2023-02-15T13:38:05;101448.91;;;28.43;17.33
75609;BME280;64194;51.044;13.780;2023-02-15T13:42:25;101449.06;;;28.64;16.67
75609;BME280;64194;51.044;13.780;2023-02-15T13:51:07;101452.88;;;29.00;16.24
75609;BME280;64194;51.044;13.780;2023-02-15T13:55:26;101460.16;;;30.96;14.85
75609;BME280;64194;51.044;13.780;2023-02-15T14:04:17;101454.56;;;29.89;14.87
75609;BME280;64194;51.044;13.780;2023-02-15T14:09:02;101454.88;;;27.37;17.54
75609;BME280;64194;51.044;13.780;2023-02-15T14:21:59;101451.84;;;21.16;24.54
75609;BME280;64194;51.044;13.780;2023-02-15T14:26:12;101440.09;;;20.00;26.42
75609;BME280;64194;51.044;13.780;2023-02-15T14:30:33;101434.94;;;22.03;24.24
75609;BME280;64194;51.044;13.780;2023-02-15T14:39:03;101436.66;;;24.37;21.08
75609;BME280;64194;51.044;13.780;2023-02-15T14:48:07;101433.81;;;23.84;20.99
75609;BME280;64194;51.044;13.780;2023-02-15T14:52:11;101434.56;;;25.18;20.19
75609;BME280;64194;51.044;13.780;2023-02-15T14:56:17;101459.56;;;24.78;19.96
75609;BME280;64194;51.044;13.780;2023-02-15T15:00:30;101444.50;;;23.31;21.74
75609;BME280;64194;51.044;13.780;2023-02-15T15:04:41;101454.16;;;22.10;23.93
75609;BME280;64194;51.044;13.780;2023-02-15T15:08:44;101436.31;;;20.97;24.79
75609;BME280;64194;51.044;13.780;2023-02-15T15:13:58;101451.34;;;20.69;25.08
75609;BME280;64194;51.044;13.780;2023-02-15T15:25:55;101461.28;;;10.11;45.77
75609;BME280;64194;51.044;13.780;2023-02-15T15:29:57;101472.13;;;9.14;48.59
75609;BME280;64194;51.044;13.780;2023-02-15T15:34:11;101475.00;;;8.59;50.38
75609;BME280;64194;51.044;13.780;2023-02-15T15:38:53;101460.63;;;8.13;52.00
75609;BME280;64194;51.044;13.780;2023-02-15T15:43:42;101444.09;;;7.52;54.06
75609;BME280;64194;51.044;13.780;2023-02-15T15:48:11;101451.34;;;7.46;54.45
75609;BME280;64194;51.044;13.780;2023-02-15T15:52:18;101437.19;;;7.18;55.16
75609;BME280;64194;51.044;13.780;2023-02-15T15:56:24;101457.97;;;6.99;56.16
75609;BME280;64194;51.044;13.780;2023-02-15T16:00:35;101435.56;;;6.83;56.34
75609;BME280;64194;51.044;13.780;2023-02-15T16:04:38;101438.59;;;6.37;57.94
75609;BME280;64194;51.044;13.780;2023-02-15T16:08:40;101431.91;;;6.22;58.52
75609;BME280;64194;51.044;13.780;2023-02-15T16:12:42;101433.47;;;5.95;59.51
75609;BME280;64194;51.044;13.780;2023-02-15T16:16:49;101438.34;;;5.73;60.31
75609;BME280;64194;51.044;13.780;2023-02-15T16:20:55;101444.72;;;5.25;62.10
75609;BME280;64194;51.044;13.780;2023-02-15T16:25:19;101429.66;;;5.31;62.07
75609;BME280;64194;51.044;13.780;2023-02-15T16:29:29;101434.72;;;5.00;63.23
75609;BME280;64194;51.044;13.780;2023-02-15T16:33:38;101433.75;;;5.03;63.52
75609;BME280;64194;51.044;13.780;2023-02-15T16:37:40;101433.28;;;4.84;63.90
75609;BME280;64194;51.044;13.780;2023-02-15T16:41:42;101437.16;;;4.65;64.60
75609;BME280;64194;51.044;13.780;2023-02-15T16:45:47;101434.03;;;4.45;65.24
75609;BME280;64194;51.044;13.780;2023-02-15T16:49:51;101430.56;;;4.43;65.58
75609;BME280;64194;51.044;13.780;2023-02-15T16:53:55;101439.59;;;4.27;66.16
75609;BME280;64194;51.044;13.780;2023-02-15T16:58:00;101444.84;;;4.30;66.53
75609;BME280;64194;51.044;13.780;2023-02-15T17:02:13;101433.53;;;4.25;66.50
75609;BME280;64194;51.044;13.780;2023-02-15T17:06:37;101425.38;;;3.88;67.73
75609;BME280;64194;51.044;13.780;2023-02-15T17:10:41;101428.75;;;3.96;67.60
75609;BME280;64194;51.044;13.780;2023-02-15T17:14:43;101432.44;;;3.84;68.09
75609;BME280;64194;51.044;13.780;2023-02-15T17:18:45;101430.06;;;3.69;68.70
75609;BME280;64194;51.044;13.780;2023-02-15T17:22:50;101435.28;;;3.70;68.84
75609;BME280;64194;51.044;13.780;2023-02-15T17:26:55;101433.50;;;3.72;68.34
75609;BME280;64194;51.044;13.780;2023-02-15T17:31:07;101427.69;;;3.49;68.67
75609;BME280;64194;51.044;13.780;2023-02-15T17:35:19;101435.66;;;3.45;69.31
75609;BME280;64194;51.044;13.780;2023-02-15T17:39:24;101431.56;;;3.24;69.93
75609;BME280;64194;51.044;13.780;2023-02-15T17:43:32;101432.53;;;3.18;70.31
75609;BME280;64194;51.044;13.780;2023-02-15T17:47:35;101429.97;;;3.12;70.67
75609;BME280;64194;51.044;13.780;2023-02-15T17:51:37;101424.94;;;2.95;71.20
75609;BME280;64194;51.044;13.780;2023-02-15T17:55:38;101433.75;;;2.91;71.36
75609;BME280;64194;51.044;13.780;2023-02-15T17:59:41;101428.53;;;2.88;71.58
75609;BME280;64194;51.044;13.780;2023-02-15T18:04:01;101434.75;;;2.81;72.02
75609;BME280;64194;51.044;13.780;2023-02-15T18:08:26;101426.88;;;2.81;72.08
75609;BME280;64194;51.044;13.780;2023-02-15T18:12:47;101433.16;;;2.67;72.59
75609;BME280;64194;51.044;13.780;2023-02-15T18:16:52;101421.75;;;2.68;72.22
75609;BME280;64194;51.044;13.780;2023-02-15T18:20:55;101417.50;;;2.59;72.69
75609;BME280;64194;51.044;13.780;2023-02-15T18:24:57;101420.06;;;2.65;72.69
75609;BME280;64194;51.044;13.780;2023-02-15T18:28:59;101414.13;;;2.49;73.27
75609;BME280;64194;51.044;13.780;2023-02-15T18:33:01;101413.19;;;2.52;73.32
75609;BME280;64194;51.044;13.780;2023-02-15T18:37:05;101417.63;;;2.48;73.47
75609;BME280;64194;51.044;13.780;2023-02-15T18:41:12;101426.41;;;2.43;73.86
75609;BME280;64194;51.044;13.780;2023-02-15T18:45:19;101420.94;;;2.64;74.64
75609;BME280;64194;51.044;13.780;2023-02-15T18:49:21;101419.19;;;2.63;73.27
75609;BME280;64194;51.044;13.780;2023-02-15T18:53:24;101420.28;;;2.44;73.55
75609;BME280;64194;51.044;13.780;2023-02-15T18:57:26;101420.38;;;2.35;73.81
75609;BME280;64194;51.044;13.780;2023-02-15T19:01:29;101424.81;;;2.28;74.26
75609;BME280;64194;51.044;13.780;2023-02-15T19:05:31;101428.31;;;2.29;74.39
75609;BME280;64194;51.044;13.780;2023-02-15T19:09:33;101425.75;;;2.23;74.15
75609;BME280;64194;51.044;13.780;2023-02-15T19:13:35;101418.81;;;2.17;74.79
75609;BME280;64194;51.044;13.780;2023-02-15T19:17:36;101414.47;;;2.13;75.01
75609;BME280;64194;51.044;13.780;2023-02-15T19:21:38;101414.53;;;2.07;75.24
75609;BME280;64194;51.044;13.780;2023-02-15T19:25:40;101410.22;;;2.01;75.42
75609;BME280;64194;51.044;13.780;2023-02-15T19:29:42;101411.09;;;1.97;75.41
75609;BME280;64194;51.044;13.780;2023-02-15T19:33:44;101406.69;;;2.02;75.32
75609;BME280;64194;51.044;13.780;2023-02-15T19:37:47;101398.06;;;1.94;75.52
75609;BME280;64194;51.044;13.780;2023-02-15T19:41:50;101394.66;;;1.85;75.94
75609;BME280;64194;51.044;13.780;2023-02-15T19:45:52;101390.28;;;1.81;76.12
75609;BME280;64194;51.044;13.780;2023-02-15T19:49:54;101390.28;;;1.81;75.96
75609;BME280;64194;51.044;13.780;2023-02-15T19:54:18;101389.47;;;1.77;75.96
75609;BME280;64194;51.044;13.780;2023-02-15T19:58:20;101377.34;;;1.64;76.60
75609;BME280;64194;51.044;13.780;2023-02-15T20:02:22;101373.78;;;1.69;76.32
75609;BME280;64194;51.044;13.780;2023-02-15T20:06:23;101372.63;;;2.07;80.22
75609;BME280;64194;51.044;13.780;2023-02-15T20:10:28;101362.13;;;2.07;74.92
75609;BME280;64194;51.044;13.780;2023-02-15T20:14:30;101364.09;;;1.85;75.65
75609;BME280;64194;51.044;13.780;2023-02-15T20:18:33;101370.31;;;1.72;76.06
75609;BME280;64194;51.044;13.780;2023-02-15T20:22:34;101360.69;;;1.69;76.79
75609;BME280;64194;51.044;13.780;2023-02-15T20:26:38;101355.56;;;1.60;76.82
75609;BME280;64194;51.044;13.780;2023-02-15T20:30:39;101344.25;;;1.55;77.01
75609;BME280;64194;51.044;13.780;2023-02-15T20:34:43;101345.94;;;1.62;76.71
75609;BME280;64194;51.044;13.780;2023-02-15T20:38:46;101346.91;;;1.49;76.94
75609;BME280;64194;51.044;13.780;2023-02-15T20:42:48;101352.09;;;1.55;77.02
75609;BME280;64194;51.044;13.780;2023-02-15T20:46:54;101344.28;;;1.52;76.91
75609;BME280;64194;51.044;13.780;2023-02-15T20:50:57;101348.66;;;1.52;76.81
75609;BME280;64194;51.044;13.780;2023-02-15T20:54:59;101339.06;;;1.49;76.75
75609;BME280;64194;51.044;13.780;2023-02-15T20:59:01;101342.59;;;1.44;76.68
75609;BME280;64194;51.044;13.780;2023-02-15T21:03:09;101348.69;;;1.44;77.46
75609;BME280;64194;51.044;13.780;2023-02-15T21:07:18;101339.97;;;1.47;76.74
75609;BME280;64194;51.044;13.780;2023-02-15T21:11:21;101341.75;;;1.40;77.42
75609;BME280;64194;51.044;13.780;2023-02-15T21:15:34;101340.88;;;1.37;77.51
75609;BME280;64194;51.044;13.780;2023-02-15T21:19:36;101337.44;;;1.36;77.29
75609;BME280;64194;51.044;13.780;2023-02-15T21:23:42;101339.09;;;1.45;76.76
75609;BME280;64194;51.044;13.780;2023-02-15T21:27:43;101330.47;;;1.34;77.24
75609;BME280;64194;51.044;13.780;2023-02-15T21:31:46;101337.44;;;1.35;76.90
75609;BME280;64194;51.044;13.780;2023-02-15T21:35:50;101329.59;;;1.36;77.05
75609;BME280;64194;51.044;13.780;2023-02-15T21:39:53;101314.75;;;1.35;77.46
75609;BME280;64194;51.044;13.780;2023-02-15T21:43:55;101322.59;;;1.32;77.09
75609;BME280;64194;51.044;13.780;2023-02-15T21:48:15;101325.22;;;1.32;77.55
75609;BME280;64194;51.044;13.780;2023-02-15T21:52:19;101327.91;;;1.24;77.28
75609;BME280;64194;51.044;13.780;2023-02-15T21:56:23;101316.59;;;1.22;77.46
75609;BME280;64194;51.044;13.780;2023-02-15T22:00:27;101307.00;;;1.23;77.91
75609;BME280;64194;51.044;13.780;2023-02-15T22:04:30;101318.41;;;1.13;77.87
75609;BME280;64194;51.044;13.780;2023-02-15T22:08:31;101314.03;;;1.12;78.06
75609;BME280;64194;51.044;13.780;2023-02-15T22:12:34;101310.56;;;1.10;78.18
75609;BME280;64194;51.044;13.780;2023-02-15T22:16:35;101310.50;;;1.17;78.06
75609;BME280;64194;51.044;13.780;2023-02-15T22:20:37;101303.56;;;1.13;78.22
75609;BME280;64194;51.044;13.780;2023-02-15T22:24:39;101315.81;;;1.07;78.40
75609;BME280;64194;51.044;13.780;2023-02-15T22:28:41;101298.41;;;1.01;78.35
75609;BME280;64194;51.044;13.780;2023-02-15T22:32:43;101320.19;;;1.08;78.00
75609;BME280;64194;51.044;13.780;2023-02-15T22:36:44;101307.09;;;1.05;78.01
75609;BME280;64194;51.044;13.780;2023-02-15T22:40:48;101307.94;;;1.11;77.74
75609;BME280;64194;51.044;13.780;2023-02-15T22:44:54;101309.69;;;1.11;77.93
75609;BME280;64194;51.044;13.780;2023-02-15T22:48:56;101311.47;;;1.09;78.45
75609;BME280;64194;51.044;13.780;2023-02-15T22:52:59;101314.00;;;1.18;78.12
75609;BME280;64194;51.044;13.780;2023-02-15T22:57:01;101311.44;;;1.13;78.11
75609;BME280;64194;51.044;13.780;2023-02-15T23:01:03;101311.47;;;1.06;78.31
75609;BME280;64194;51.044;13.780;2023-02-15T23:05:14;101315.81;;;1.04;78.58
75609;BME280;64194;51.044;13.780;2023-02-15T23:09:16;101313.16;;;1.10;78.53